createdAt,value
2018-12-07T00:00:44.991Z,3.65
2018-12-07T00:03:13.665Z,3.60
2018-12-07T00:05:42.348Z,3.33
2018-12-07T00:08:10.996Z,3.10
2018-12-07T00:10:39.640Z,3.47
2018-12-07T00:13:08.279Z,3.85
2018-12-07T00:15:36.968Z,3.72
2018-12-07T00:18:05.629Z,3.83
2018-12-07T00:20:34.312Z,3.70
2018-12-07T00:23:02.970Z,2.90
2018-12-07T00:25:31.641Z,3.40
2018-12-07T00:28:00.326Z,3.58
2018-12-07T00:30:29.049Z,3.70
2018-12-07T00:32:57.744Z,3.50
2018-12-07T00:35:26.437Z,3.67
2018-12-07T00:37:55.051Z,3.67
2018-12-07T00:40:23.750Z,3.77
2018-12-07T00:42:52.395Z,4.08
2018-12-07T00:45:21.071Z,3.77
2018-12-07T00:47:49.813Z,3.92
2018-12-07T00:50:18.416Z,3.25
2018-12-07T00:52:47.068Z,4.17
2018-12-07T00:55:26.948Z,3.83
2018-12-07T00:57:55.616Z,3.55
2018-12-07T01:00:24.276Z,3.77
2018-12-07T01:02:52.931Z,3.47
2018-12-07T01:05:21.576Z,3.95
2018-12-07T01:07:50.246Z,3.72
2018-12-07T01:10:18.826Z,3.87
2018-12-07T01:12:47.525Z,4.10
2018-12-07T01:15:16.185Z,4.60
2018-12-07T01:17:44.799Z,3.70
2018-12-07T01:20:13.591Z,4.20
2018-12-07T01:22:42.235Z,4.05
2018-12-07T01:25:11.049Z,3.52
2018-12-07T01:27:39.691Z,4.12
2018-12-07T01:30:08.632Z,4.25
2018-12-07T01:32:37.331Z,3.70
2018-12-07T01:35:06.324Z,3.65
2018-12-07T01:37:35.065Z,3.45
2018-12-07T01:40:03.908Z,3.75
2018-12-07T01:42:32.643Z,4.37
2018-12-07T01:45:01.346Z,3.67
2018-12-07T01:47:29.975Z,3.20
2018-12-07T01:49:58.616Z,3.67
2018-12-07T01:52:27.250Z,3.33
2018-12-07T01:54:55.849Z,4.20
2018-12-07T01:57:24.528Z,3.92
2018-12-07T01:59:53.180Z,3.62
2018-12-07T02:02:21.928Z,3.65
2018-12-07T02:04:50.575Z,3.98
2018-12-07T02:07:31.047Z,3.83
2018-12-07T02:10:00.398Z,3.72
2018-12-07T02:12:29.148Z,3.40
2018-12-07T02:14:57.747Z,3.65
2018-12-07T02:17:26.366Z,3.15
2018-12-07T02:19:55.091Z,3.58
2018-12-07T02:22:23.737Z,3.50
2018-12-07T02:24:52.381Z,3.62
2018-12-07T02:27:21.187Z,3.67
2018-12-07T02:29:49.813Z,2.98
2018-12-07T02:32:18.541Z,4.00
2018-12-07T02:34:47.144Z,3.33
2018-12-07T02:37:15.807Z,3.25
2018-12-07T02:39:44.511Z,3.47
2018-12-07T02:42:13.155Z,3.47
2018-12-07T02:44:41.972Z,3.17
2018-12-07T02:47:10.561Z,2.95
2018-12-07T02:49:39.200Z,2.92
2018-12-07T02:52:07.818Z,3.05
2018-12-07T02:54:36.443Z,3.05
2018-12-07T02:57:05.087Z,3.40
2018-12-07T02:59:33.689Z,3.08
2018-12-07T03:02:02.476Z,3.17
2018-12-07T03:04:31.223Z,2.80
2018-12-07T03:06:59.862Z,2.90
2018-12-07T03:09:28.525Z,3.17
2018-12-07T03:11:57.302Z,2.67
2018-12-07T03:14:25.969Z,2.52
2018-12-07T03:16:54.653Z,2.98
2018-12-07T03:19:23.304Z,3.25
2018-12-07T03:21:51.955Z,3.02
2018-12-07T03:24:20.616Z,2.95
2018-12-07T03:26:49.284Z,3.10
2018-12-07T03:29:17.904Z,2.70
2018-12-07T03:31:46.493Z,2.70
2018-12-07T03:34:15.216Z,2.50
2018-12-07T03:36:43.864Z,2.60
2018-12-07T03:39:12.498Z,2.77
2018-12-07T03:41:41.237Z,2.45
2018-12-07T03:44:09.825Z,2.40
2018-12-07T03:46:38.515Z,2.77
2018-12-07T03:49:07.164Z,2.77
2018-12-07T03:51:35.821Z,2.08
2018-12-07T03:54:04.498Z,2.20
2018-12-07T03:56:33.287Z,2.40
2018-12-07T03:59:01.935Z,2.15
2018-12-07T04:01:30.548Z,2.20
2018-12-07T04:03:59.228Z,2.02
2018-12-07T04:06:27.849Z,2.10
2018-12-07T04:08:56.507Z,2.30
2018-12-07T04:11:25.218Z,2.10
2018-12-07T04:13:54.571Z,2.15
2018-12-07T04:16:23.194Z,2.30
2018-12-07T04:18:51.821Z,2.02
2018-12-07T04:21:20.583Z,2.15
2018-12-07T04:23:49.155Z,1.82
2018-12-07T04:26:17.731Z,2.05
2018-12-07T04:28:46.412Z,1.92
2018-12-07T04:31:15.022Z,1.75
2018-12-07T04:33:43.639Z,1.82
2018-12-07T04:36:12.306Z,1.75
2018-12-07T04:38:41.606Z,2.00
2018-12-07T04:41:10.240Z,1.62
2018-12-07T04:43:38.931Z,1.92
2018-12-07T04:46:07.698Z,1.80
2018-12-07T04:48:36.397Z,2.05
2018-12-07T04:51:05.727Z,1.50
2018-12-07T04:53:34.309Z,1.60
2018-12-07T04:56:02.879Z,1.60
2018-12-07T04:58:31.527Z,2.10
2018-12-07T05:01:00.195Z,1.62
2018-12-07T05:03:28.831Z,1.72
2018-12-07T05:05:57.559Z,1.70
2018-12-07T05:08:26.147Z,1.60
2018-12-07T05:10:54.839Z,1.52
2018-12-07T05:13:23.452Z,1.50
2018-12-07T05:15:52.163Z,1.77
2018-12-07T05:18:20.825Z,1.67
2018-12-07T05:20:49.442Z,1.30
2018-12-07T05:23:18.052Z,1.57
2018-12-07T05:25:46.701Z,1.60
2018-12-07T05:28:15.407Z,1.32
2018-12-07T05:30:44.173Z,1.67
2018-12-07T05:33:13.081Z,1.00
2018-12-07T05:35:41.708Z,1.60
2018-12-07T05:38:10.368Z,1.55
2018-12-07T05:40:39.124Z,1.50
2018-12-07T05:43:07.799Z,1.45
2018-12-07T05:45:36.411Z,1.25
2018-12-07T05:48:05.275Z,1.77
2018-12-07T05:50:33.895Z,1.42
2018-12-07T05:53:02.577Z,1.47
2018-12-07T05:55:31.266Z,1.40
2018-12-07T05:58:00.000Z,1.20
2018-12-07T06:00:28.656Z,1.42
2018-12-07T06:02:57.362Z,1.22
2018-12-07T06:05:26.003Z,1.40
2018-12-07T06:07:54.717Z,1.62
2018-12-07T06:10:23.364Z,1.42
2018-12-07T06:12:51.966Z,1.32
2018-12-07T06:15:20.632Z,1.25
2018-12-07T06:17:49.249Z,1.30
2018-12-07T06:20:17.835Z,1.32
2018-12-07T06:22:46.428Z,1.15
2018-12-07T06:25:15.154Z,1.50
2018-12-07T06:27:43.732Z,1.20
2018-12-07T06:30:12.598Z,1.65
2018-12-07T06:32:41.275Z,1.32
2018-12-07T06:35:11.887Z,1.45
2018-12-07T06:37:40.505Z,1.00
2018-12-07T06:40:09.370Z,1.15
2018-12-07T06:42:37.986Z,1.20
2018-12-07T06:45:07.050Z,1.40
2018-12-07T06:47:35.686Z,1.30
2018-12-07T06:50:04.623Z,1.47
2018-12-07T06:52:33.257Z,1.42
2018-12-07T06:55:02.054Z,1.32
2018-12-07T06:57:30.640Z,1.52
2018-12-07T06:59:59.376Z,1.27
2018-12-07T07:02:28.067Z,1.30
2018-12-07T07:04:56.644Z,1.35
2018-12-07T07:07:25.247Z,1.30
2018-12-07T07:09:53.845Z,1.17
2018-12-07T07:12:22.522Z,1.20
2018-12-07T07:14:51.113Z,1.35
2018-12-07T07:17:19.723Z,1.27
2018-12-07T07:19:48.336Z,1.30
2018-12-07T07:22:16.979Z,1.32
2018-12-07T07:24:45.743Z,1.22
2018-12-07T07:27:14.323Z,1.20
2018-12-07T07:29:43.033Z,1.57
2018-12-07T07:32:11.707Z,1.57
2018-12-07T07:34:41.144Z,1.70
2018-12-07T07:37:09.799Z,1.50
2018-12-07T07:39:38.486Z,1.72
2018-12-07T07:42:07.157Z,1.35
2018-12-07T07:44:35.784Z,1.57
2018-12-07T07:47:04.438Z,1.55
2018-12-07T07:49:33.383Z,1.60
2018-12-07T07:52:02.042Z,1.75
2018-12-07T07:54:30.629Z,1.70
2018-12-07T07:56:59.276Z,1.50
2018-12-07T07:59:28.003Z,1.60
2018-12-07T08:01:56.631Z,2.05
2018-12-07T08:04:25.331Z,1.95
2018-12-07T08:06:53.956Z,1.70
2018-12-07T08:09:22.616Z,1.50
2018-12-07T08:11:51.346Z,1.67
2018-12-07T08:14:19.985Z,1.72
2018-12-07T08:16:48.572Z,1.52
2018-12-07T08:19:17.210Z,1.80
2018-12-07T08:21:45.848Z,2.10
2018-12-07T08:24:14.556Z,2.00
2018-12-07T08:26:43.206Z,2.05
2018-12-07T08:29:12.068Z,1.52
2018-12-07T08:31:40.830Z,1.80
2018-12-07T08:34:09.486Z,2.10
2018-12-07T08:36:38.126Z,1.45
2018-12-07T08:39:10.404Z,1.82
2018-12-07T08:41:39.098Z,1.90
2018-12-07T08:44:07.703Z,1.98
2018-12-07T08:46:36.339Z,1.80
2018-12-07T08:49:05.105Z,1.60
2018-12-07T08:51:33.758Z,1.55
2018-12-07T08:54:02.390Z,1.80
2018-12-07T08:56:31.000Z,1.50
2018-12-07T08:58:59.650Z,1.60
2018-12-07T09:01:28.319Z,1.25
2018-12-07T09:03:56.983Z,1.80
2018-12-07T09:06:25.679Z,1.75
2018-12-07T09:08:54.332Z,1.67
2018-12-07T09:11:22.940Z,1.50
2018-12-07T09:13:51.516Z,1.75
2018-12-07T09:16:20.258Z,1.80
2018-12-07T09:18:48.897Z,1.90
2018-12-07T09:21:17.484Z,1.72
2018-12-07T09:23:49.481Z,1.60
2018-12-07T09:26:16.882Z,2.02
2018-12-07T09:28:45.516Z,1.62
2018-12-07T09:31:14.146Z,1.67
2018-12-07T09:33:42.764Z,1.92
2018-12-07T09:36:11.589Z,1.60
2018-12-07T09:38:40.183Z,1.80
2018-12-07T09:41:08.795Z,1.70
2018-12-07T09:43:37.439Z,1.50
2018-12-07T09:46:06.049Z,1.60
2018-12-07T09:48:34.628Z,1.60
2018-12-07T09:51:03.301Z,1.72
2018-12-07T09:53:31.912Z,1.85
2018-12-07T09:56:00.568Z,1.75
2018-12-07T09:58:29.218Z,2.00
2018-12-07T10:00:57.820Z,2.17
2018-12-07T10:03:26.523Z,1.32
2018-12-07T10:05:55.207Z,1.65
2018-12-07T10:08:23.808Z,1.80
2018-12-07T10:10:52.425Z,2.02
2018-12-07T10:13:21.113Z,1.70
2018-12-07T10:15:49.695Z,1.92
2018-12-07T10:18:18.302Z,2.17
2018-12-07T10:20:46.960Z,1.90
2018-12-07T10:23:15.897Z,1.75
2018-12-07T10:25:44.536Z,1.82
2018-12-07T10:28:13.247Z,1.80
2018-12-07T10:30:41.980Z,1.82
2018-12-07T10:33:10.676Z,1.77
2018-12-07T10:35:39.389Z,2.20
2018-12-07T10:38:08.120Z,1.67
2018-12-07T10:40:36.822Z,1.98
2018-12-07T10:43:05.482Z,1.98
2018-12-07T10:45:34.096Z,1.80
2018-12-07T10:48:02.779Z,2.20
2018-12-07T10:50:31.383Z,2.02
2018-12-07T10:53:00.007Z,1.70
2018-12-07T10:55:28.660Z,1.57
2018-12-07T10:57:57.314Z,1.92
2018-12-07T11:00:31.152Z,2.00
2018-12-07T11:03:04.978Z,2.25
2018-12-07T11:05:38.717Z,2.42
2018-12-07T11:08:12.685Z,2.67
2018-12-07T11:10:46.567Z,2.10
2018-12-07T11:13:20.343Z,2.40
2018-12-07T11:15:54.197Z,2.45
2018-12-07T11:18:28.172Z,2.00
2018-12-07T11:21:02.064Z,2.65
2018-12-07T11:23:35.956Z,2.10
2018-12-07T11:26:09.973Z,2.00
2018-12-07T11:28:47.763Z,2.27
2018-12-07T11:31:21.662Z,2.37
2018-12-07T11:33:55.965Z,2.50
2018-12-07T11:36:24.735Z,2.10
2018-12-07T11:38:53.396Z,2.37
2018-12-07T11:41:22.139Z,2.27
2018-12-07T11:43:50.752Z,2.25
2018-12-07T11:46:19.403Z,2.25
2018-12-07T11:48:48.075Z,2.70
2018-12-07T11:51:16.642Z,2.45
2018-12-07T11:53:45.308Z,2.80
2018-12-07T11:56:13.980Z,2.80
2018-12-07T11:58:42.625Z,2.47
2018-12-07T12:01:11.324Z,2.12
2018-12-07T12:03:39.980Z,2.85
2018-12-07T12:06:08.651Z,2.75
2018-12-07T12:08:37.296Z,3.12
2018-12-07T12:11:05.911Z,2.50
2018-12-07T12:13:34.684Z,2.30
2018-12-07T12:16:03.424Z,2.70
2018-12-07T12:18:32.047Z,2.50
2018-12-07T12:21:00.641Z,2.45
2018-12-07T12:23:29.445Z,2.67
2018-12-07T12:25:58.217Z,2.75
2018-12-07T12:28:26.832Z,2.30
2018-12-07T12:30:55.528Z,2.85
2018-12-07T12:33:24.211Z,2.27
2018-12-07T12:35:52.858Z,2.70
2018-12-07T12:38:21.537Z,2.40
2018-12-07T12:40:50.195Z,2.42
2018-12-07T12:43:18.894Z,2.22
2018-12-07T12:45:47.590Z,2.35
2018-12-07T12:48:16.256Z,2.90
2018-12-07T12:50:44.913Z,2.83
2018-12-07T12:53:13.647Z,2.87
2018-12-07T12:55:42.363Z,2.50
2018-12-07T12:58:11.004Z,3.22
2018-12-07T13:00:39.665Z,2.35
2018-12-07T13:03:08.379Z,2.92
2018-12-07T13:05:37.016Z,3.27
2018-12-07T13:08:05.845Z,3.00
2018-12-07T13:10:34.504Z,3.17
2018-12-07T13:13:03.131Z,3.60
2018-12-07T13:15:31.760Z,3.37
2018-12-07T13:18:00.391Z,2.98
2018-12-07T13:20:28.992Z,3.37
2018-12-07T13:22:57.559Z,3.02
2018-12-07T13:25:26.155Z,3.00
2018-12-07T13:27:54.842Z,3.00
2018-12-07T13:30:23.454Z,3.25
2018-12-07T13:32:52.098Z,3.27
2018-12-07T13:35:21.368Z,2.77
2018-12-07T13:37:50.089Z,3.17
2018-12-07T13:40:18.947Z,3.22
2018-12-07T13:42:47.739Z,3.20
2018-12-07T13:45:16.694Z,3.20
2018-12-07T13:47:45.674Z,3.55
2018-12-07T13:50:19.636Z,3.17
2018-12-07T13:52:48.447Z,2.62
2018-12-07T13:55:17.231Z,3.02
2018-12-07T13:57:46.084Z,2.95
2018-12-07T14:00:14.790Z,3.37
2018-12-07T14:02:43.698Z,3.40
2018-12-07T14:05:13.051Z,2.98
2018-12-07T14:07:41.808Z,2.98
2018-12-07T14:10:10.410Z,2.80
2018-12-07T14:12:39.382Z,3.22
2018-12-07T14:15:08.612Z,3.00
2018-12-07T14:17:37.423Z,3.47
2018-12-07T14:20:07.368Z,3.02
2018-12-07T14:22:36.332Z,2.75
2018-12-07T14:25:05.701Z,2.80
2018-12-07T14:27:34.491Z,2.85
2018-12-07T14:30:03.541Z,3.10
2018-12-07T14:32:32.615Z,2.83
2018-12-07T14:35:01.401Z,2.55
2018-12-07T14:37:30.216Z,2.60
2018-12-07T14:39:58.944Z,2.72
2018-12-07T14:42:27.787Z,2.80
2018-12-07T14:44:56.550Z,2.60
2018-12-07T14:47:25.301Z,2.60
2018-12-07T14:49:54.259Z,2.52
2018-12-07T14:52:23.189Z,2.52
2018-12-07T14:54:52.232Z,2.70
2018-12-07T14:57:21.122Z,2.65
2018-12-07T14:59:49.928Z,2.08
2018-12-07T15:02:18.956Z,2.72
2018-12-07T15:04:47.880Z,2.47
2018-12-07T15:07:16.831Z,2.30
2018-12-07T15:09:45.575Z,2.25
2018-12-07T15:12:14.481Z,2.20
2018-12-07T15:14:43.286Z,2.35
2018-12-07T15:17:12.434Z,2.17
2018-12-07T15:19:41.352Z,2.42
2018-12-07T15:22:10.240Z,2.20
2018-12-07T15:24:38.965Z,2.37
2018-12-07T15:27:07.700Z,2.12
2018-12-07T15:29:36.962Z,2.20
2018-12-07T15:32:06.021Z,2.62
2018-12-07T15:34:34.850Z,2.62
2018-12-07T15:37:03.803Z,2.37
2018-12-07T15:39:32.711Z,2.17
2018-12-07T15:42:01.504Z,2.40
2018-12-07T15:44:30.213Z,2.42
2018-12-07T15:46:58.949Z,2.17
2018-12-07T15:49:27.704Z,2.10
2018-12-07T15:51:56.432Z,2.30
2018-12-07T15:54:25.207Z,2.20
2018-12-07T15:56:54.083Z,2.08
2018-12-07T15:59:22.807Z,2.12
2018-12-07T16:01:51.881Z,1.70
2018-12-07T16:04:21.638Z,1.95
2018-12-07T16:06:50.468Z,2.02
2018-12-07T16:09:19.261Z,1.95
2018-12-07T16:11:48.170Z,1.98
2018-12-07T16:14:16.890Z,2.33
2018-12-07T16:16:45.908Z,2.33
2018-12-07T16:19:14.842Z,2.10
2018-12-07T16:21:43.787Z,1.98
2018-12-07T16:24:13.415Z,2.00
2018-12-07T16:26:42.499Z,2.45
2018-12-07T16:29:11.210Z,2.33
2018-12-07T16:31:40.144Z,2.45
2018-12-07T16:34:08.914Z,2.00
2018-12-07T16:36:37.596Z,1.87
2018-12-07T16:39:08.384Z,2.00
2018-12-07T16:41:37.365Z,2.25
2018-12-07T16:44:06.395Z,1.72
2018-12-07T16:46:35.155Z,1.90
2018-12-07T16:49:04.017Z,1.70
2018-12-07T16:51:32.814Z,1.90
2018-12-07T16:54:01.585Z,2.22
2018-12-07T16:56:30.587Z,2.40
2018-12-07T16:58:59.312Z,2.20
2018-12-07T17:01:28.171Z,2.30
2018-12-07T17:03:57.083Z,2.45
2018-12-07T17:06:26.605Z,1.90
2018-12-07T17:08:55.574Z,2.17
2018-12-07T17:11:24.585Z,1.70
2018-12-07T17:13:53.484Z,2.00
2018-12-07T17:16:22.539Z,1.85
2018-12-07T17:18:51.405Z,2.17
2018-12-07T17:21:20.471Z,2.22
2018-12-07T17:23:49.369Z,1.85
2018-12-07T17:26:18.427Z,1.70
2018-12-07T17:28:47.346Z,1.80
2018-12-07T17:31:16.377Z,1.52
2018-12-07T17:33:45.337Z,1.82
2018-12-07T17:36:14.163Z,1.40
2018-12-07T17:38:42.876Z,1.60
2018-12-07T17:41:11.629Z,1.70
2018-12-07T17:43:40.389Z,1.57
2018-12-07T17:46:09.144Z,1.80
2018-12-07T17:48:38.135Z,1.80
2018-12-07T17:51:07.017Z,1.90
2018-12-07T17:53:36.094Z,1.77
2018-12-07T17:56:05.066Z,1.57
2018-12-07T17:58:34.024Z,1.90
2018-12-07T18:01:02.836Z,2.00
2018-12-07T18:03:31.539Z,2.20
2018-12-07T18:06:00.264Z,1.90
2018-12-07T18:08:29.025Z,1.87
2018-12-07T18:10:57.896Z,2.17
2018-12-07T18:13:26.890Z,1.80
2018-12-07T18:15:55.740Z,2.12
2018-12-07T18:18:24.369Z,2.22
2018-12-07T18:20:53.203Z,2.08
2018-12-07T18:23:22.252Z,1.90
2018-12-07T18:25:51.158Z,1.90
2018-12-07T18:28:20.235Z,2.10
2018-12-07T18:30:49.234Z,1.87
2018-12-07T18:33:18.052Z,1.80
2018-12-07T18:35:46.914Z,2.47
2018-12-07T18:38:15.963Z,2.20
2018-12-07T18:40:44.852Z,2.95
2018-12-07T18:43:14.430Z,2.52
2018-12-07T18:45:43.326Z,2.65
2018-12-07T18:48:12.201Z,2.33
2018-12-07T18:50:41.199Z,2.40
2018-12-07T18:53:10.247Z,2.45
2018-12-07T18:55:39.547Z,2.20
2018-12-07T18:58:08.605Z,2.05
2018-12-07T19:00:37.601Z,2.05
2018-12-07T19:03:06.394Z,2.37
2018-12-07T19:05:35.257Z,2.77
2018-12-07T19:08:04.168Z,2.22
2018-12-07T19:10:33.314Z,2.40
2018-12-07T19:13:02.309Z,2.55
2018-12-07T19:15:31.048Z,2.47
2018-12-07T19:17:59.781Z,2.37
2018-12-07T19:20:28.610Z,2.85
2018-12-07T19:22:57.535Z,2.70
2018-12-07T19:25:26.709Z,2.47
2018-12-07T19:27:55.796Z,2.40
2018-12-07T19:30:24.769Z,2.62
2018-12-07T19:32:53.773Z,2.72
2018-12-07T19:35:22.574Z,2.67
2018-12-07T19:37:51.512Z,2.90
2018-12-07T19:40:20.565Z,2.85
2018-12-07T19:42:49.413Z,2.60
2018-12-07T19:45:18.408Z,2.55
2018-12-07T19:47:47.258Z,2.65
2018-12-07T19:50:16.022Z,2.77
2018-12-07T19:52:44.993Z,2.45
2018-12-07T19:55:14.023Z,2.62
2018-12-07T19:57:43.515Z,2.70
2018-12-07T20:00:14.085Z,2.25
2018-12-07T20:02:43.309Z,2.02
2018-12-07T20:05:13.404Z,2.10
2018-12-07T20:07:42.435Z,2.30
2018-12-07T20:10:11.645Z,2.30
2018-12-07T20:12:40.808Z,2.30
2018-12-07T20:15:09.755Z,2.33
2018-12-07T20:17:38.972Z,2.35
2018-12-07T20:20:08.517Z,2.40
2018-12-07T20:22:37.372Z,2.60
2018-12-07T20:25:06.203Z,2.75
2018-12-07T20:27:35.136Z,2.72
2018-12-07T20:30:04.574Z,2.70
2018-12-07T20:32:33.798Z,2.30
2018-12-07T20:35:02.999Z,2.60
2018-12-07T20:37:31.903Z,2.75
2018-12-07T20:40:00.746Z,2.35
2018-12-07T20:42:29.612Z,2.80
2018-12-07T20:44:58.542Z,2.90
2018-12-07T20:47:27.454Z,2.40
2018-12-07T20:49:56.689Z,2.35
2018-12-07T20:52:25.967Z,2.37
2018-12-07T20:54:55.120Z,2.20
2018-12-07T20:57:23.988Z,2.40
2018-12-07T20:59:53.206Z,2.30
2018-12-07T21:02:22.033Z,2.58
2018-12-07T21:04:52.142Z,2.62
2018-12-07T21:12:25.701Z,2.10
2018-12-07T21:14:56.568Z,2.27
2018-12-07T21:17:30.886Z,2.60
2018-12-07T21:20:04.839Z,2.45
2018-12-07T21:22:33.985Z,2.33
2018-12-07T21:25:03.264Z,2.33
2018-12-07T21:27:32.217Z,2.87
2018-12-07T21:30:49.635Z,2.47
2018-12-07T21:34:23.629Z,2.83
2018-12-07T21:36:52.587Z,2.85
2018-12-07T21:39:28.799Z,2.90
2018-12-07T21:41:58.166Z,3.30
2018-12-07T21:44:27.147Z,3.10
2018-12-07T21:46:56.017Z,3.50
2018-12-07T21:49:26.449Z,3.30
2018-12-07T21:52:05.977Z,3.50
2018-12-07T21:54:34.982Z,3.40
2018-12-07T21:57:03.881Z,2.87
2018-12-07T21:59:32.968Z,3.20
2018-12-07T22:02:02.135Z,2.80
2018-12-07T22:04:31.329Z,3.17
2018-12-07T22:07:00.330Z,2.90
2018-12-07T22:09:29.300Z,2.95
2018-12-07T22:11:58.031Z,2.80
2018-12-07T22:14:26.795Z,2.55
2018-12-07T22:16:55.524Z,3.08
2018-12-07T22:19:24.269Z,3.20
2018-12-07T22:21:53.106Z,2.72
2018-12-07T22:24:22.183Z,2.55
2018-12-07T22:26:51.281Z,2.55
2018-12-07T22:29:20.374Z,3.40
2018-12-07T22:31:49.226Z,3.83
2018-12-07T22:34:18.103Z,3.77
2018-12-07T22:36:47.131Z,3.72
2018-12-07T22:39:16.327Z,3.52
2018-12-07T22:41:45.542Z,3.20
2018-12-07T22:44:14.428Z,3.50
2018-12-07T22:46:44.488Z,3.72
2018-12-07T22:49:13.284Z,3.72
2018-12-07T22:51:42.021Z,3.90
2018-12-07T22:54:11.014Z,3.92
2018-12-07T22:56:40.318Z,3.95
2018-12-07T22:59:09.110Z,3.77
2018-12-07T23:01:37.813Z,3.62
2018-12-07T23:04:06.477Z,3.80
2018-12-07T23:06:35.316Z,3.80
2018-12-07T23:09:05.716Z,3.65
2018-12-07T23:11:34.403Z,3.75
2018-12-07T23:14:03.201Z,4.08
2018-12-07T23:16:31.868Z,4.10
2018-12-07T23:19:00.534Z,3.80
2018-12-07T23:21:29.347Z,3.62
2018-12-07T23:23:58.059Z,3.60
2018-12-07T23:26:26.788Z,3.40
2018-12-07T23:28:55.503Z,3.70
2018-12-07T23:31:24.254Z,4.20
2018-12-07T23:33:53.009Z,4.25
2018-12-07T23:36:21.662Z,4.33
2018-12-07T23:38:50.411Z,3.75
2018-12-07T23:41:19.186Z,4.17
2018-12-07T23:43:47.856Z,3.60
2018-12-07T23:46:16.600Z,4.30
2018-12-07T23:48:45.472Z,4.03
2018-12-07T23:51:14.449Z,3.40
2018-12-07T23:53:43.224Z,3.22
2018-12-07T23:56:12.087Z,3.55
2018-12-07T23:58:40.800Z,4.10
